Time;durP1;ratioP1;P1;durP2;ratioP2;P2;SDS_P1;SDS_P2;PMS_P1;PMS_P2;Temp;Humidity;BMP_temperature;BMP_pressure;BME280_temperature;BME280_humidity;BME280_pressure;Samples;Min_cycle;Max_cycle;Signal;HPM_P1;HPM_P2
2021/12/18 00:02:28;;;;;;;16.30;13.10;;;;;;;5.77;74.07;97468.16;4955931;28;20235;-82
2021/12/18 00:04:55;;;;;;;16.23;13.00;;;;;;;5.81;73.71;97474.72;4935212;29;20578;-82
2021/12/18 00:07:40;;;;;;;16.87;13.23;;;;;;;5.81;73.80;97479.81;4943272;29;20564;-82
2021/12/18 00:10:07;;;;;;;15.53;12.03;;;;;;;5.85;73.75;97488.94;4955263;28;20311;-82
2021/12/18 00:12:35;;;;;;;18.60;13.40;;;;;;;5.85;73.26;97481.25;4954253;28;20228;-82
2021/12/18 00:15:04;;;;;;;15.83;12.53;;;;;;;5.89;73.35;97477.63;4953939;28;20209;-82
2021/12/18 00:17:56;;;;;;;16.07;12.93;;;;;;;5.89;73.25;97479.34;4955259;28;20200;-82
2021/12/18 00:20:25;;;;;;;16.93;12.87;;;;;;;5.90;72.87;97473.31;4955140;28;20276;-81
2021/12/18 00:22:55;;;;;;;15.27;12.53;;;;;;;5.64;73.25;97479.28;4959424;28;20429;-82
2021/12/18 00:25:24;;;;;;;18.47;13.60;;;;;;;5.62;73.76;97487.03;4959688;28;20193;-81
2021/12/18 00:27:55;;;;;;;15.83;13.03;;;;;;;5.66;74.08;97482.56;4958883;29;20197;-82
2021/12/18 00:30:24;;;;;;;18.50;13.27;;;;;;;5.60;73.91;97485.50;4958876;28;20224;-81
2021/12/18 00:32:55;;;;;;;16.73;13.10;;;;;;;5.67;73.91;97496.97;4960562;28;20205;-80
2021/12/18 00:35:24;;;;;;;17.57;13.40;;;;;;;5.75;73.81;97495.56;4958938;28;20205;-81
2021/12/18 00:37:50;;;;;;;14.93;12.37;;;;;;;5.79;73.66;97511.50;4959282;28;20240;-82
2021/12/18 00:40:24;;;;;;;17.47;12.93;;;;;;;5.78;73.35;97512.41;4959012;29;20224;-82
2021/12/18 00:42:58;;;;;;;16.27;12.50;;;;;;;5.76;73.37;97517.66;4957361;28;20228;-82
2021/12/18 00:45:25;;;;;;;16.20;12.77;;;;;;;5.76;73.44;97521.94;4958161;29;20231;-82
2021/12/18 00:47:57;;;;;;;17.30;13.00;;;;;;;5.66;73.37;97516.59;4958767;28;20208;-82
2021/12/18 00:50:30;;;;;;;17.00;13.03;;;;;;;5.63;73.49;97515.97;4957421;28;20224;-82
2021/12/18 00:52:59;;;;;;;16.07;12.63;;;;;;;5.65;73.53;97527.75;4957919;29;20584;-82
2021/12/18 00:55:26;;;;;;;16.90;13.67;;;;;;;5.65;73.11;97522.63;4957424;28;20200;-82
2021/12/18 01:00:34;;;;;;;16.57;12.53;;;;;;;5.62;73.12;97517.72;4957108;28;20232;-82
2021/12/18 01:03:14;;;;;;;16.27;13.37;;;;;;;5.46;73.91;97517.06;4957652;29;20202;-82
2021/12/18 01:05:41;;;;;;;17.80;14.03;;;;;;;5.28;74.24;97525.88;4956837;29;20724;-81
2021/12/18 01:08:10;;;;;;;17.97;13.60;;;;;;;5.35;74.32;97519.47;4957372;28;20788;-81
2021/12/18 01:11:13;;;;;;;17.60;14.70;;;;;;;5.38;74.16;97519.28;4957323;28;20255;-81
2021/12/18 01:13:53;;;;;;;18.73;14.00;;;;;;;5.44;73.87;97534.22;4938828;29;20202;-82
2021/12/18 01:16:34;;;;;;;17.47;13.47;;;;;;;5.45;73.82;97529.00;4941327;29;20228;-81
2021/12/18 01:24:27;;;;;;;15.43;12.40;;;;;;;5.48;73.28;97551.81;4956293;28;20204;-82
2021/12/18 01:26:53;;;;;;;16.87;13.13;;;;;;;5.47;73.06;97555.28;4956552;29;20201;-82
2021/12/18 01:29:20;;;;;;;18.87;14.33;;;;;;;5.45;73.00;97554.56;4956234;28;20201;-81
2021/12/18 01:31:53;;;;;;;17.80;13.83;;;;;;;5.42;73.73;97548.81;4955274;28;20232;-81
2021/12/18 01:34:20;;;;;;;20.30;14.63;;;;;;;5.35;73.97;97558.59;4956575;28;20201;-82
2021/12/18 01:36:50;;;;;;;22.47;15.83;;;;;;;5.10;75.08;97553.38;4955685;29;20232;-82
2021/12/18 01:39:16;;;;;;;24.03;16.17;;;;;;;4.96;75.42;97551.66;4956775;29;20279;-82
2021/12/18 01:41:59;;;;;;;22.23;16.30;;;;;;;5.04;75.80;97564.75;4956100;28;20229;-82
2021/12/18 01:44:55;;;;;;;19.77;15.30;;;;;;;5.11;75.73;97571.16;4956723;29;20205;-81
2021/12/18 01:52:54;;;;;;;22.83;15.43;;;;;;;5.13;75.22;97554.00;4956340;28;20371;-81
2021/12/18 01:55:21;;;;;;;20.87;15.93;;;;;;;5.14;74.81;97555.66;4956855;28;20215;-81
2021/12/18 01:57:47;;;;;;;22.20;16.07;;;;;;;5.16;74.64;97547.91;4956454;29;20225;-81
2021/12/18 02:00:18;;;;;;;20.03;16.00;;;;;;;5.17;75.18;97539.31;4956564;28;20216;-82
2021/12/18 02:02:45;;;;;;;19.23;15.77;;;;;;;5.22;74.46;97521.97;4955506;28;20232;-81
2021/12/18 02:05:13;;;;;;;22.60;16.90;;;;;;;5.12;74.81;97514.06;4955377;28;20657;-81
2021/12/18 02:07:40;;;;;;;25.37;16.83;;;;;;;4.92;75.41;97517.03;4956048;28;20209;-82
2021/12/18 02:10:11;;;;;;;25.17;17.30;;;;;;;4.61;77.15;97515.53;4955984;28;20220;-81
2021/12/18 02:12:46;;;;;;;22.30;16.07;;;;;;;4.73;76.71;97514.78;4955255;28;20225;-81
2021/12/18 02:20:45;;;;;;;21.50;15.33;;;;;;;4.74;77.21;97513.88;4964070;28;20324;-81
2021/12/18 02:23:12;;;;;;;21.73;16.53;;;;;;;4.80;77.22;97513.50;4963686;28;20201;-82
2021/12/18 02:25:39;;;;;;;22.90;16.30;;;;;;;4.94;76.75;97509.28;4958060;28;20197;-81
2021/12/18 02:28:13;;;;;;;24.67;17.43;;;;;;;4.95;76.45;97510.91;4956697;29;20221;-82
2021/12/18 02:30:40;;;;;;;24.97;16.87;;;;;;;4.98;76.40;97503.06;4956903;28;20327;-81
2021/12/18 02:33:06;;;;;;;24.83;18.03;;;;;;;5.01;76.34;97508.78;4957703;28;20235;-81
2021/12/18 02:35:39;;;;;;;22.33;16.73;;;;;;;5.07;76.35;97526.28;4957581;29;20211;-81
2021/12/18 02:38:12;;;;;;;24.77;17.27;;;;;;;5.03;76.50;97514.63;4957659;29;20224;-82
2021/12/18 02:40:54;;;;;;;25.17;17.57;;;;;;;4.93;76.11;97507.63;4957420;28;20220;-82
2021/12/18 02:43:24;;;;;;;24.03;16.93;;;;;;;4.90;76.71;97506.09;4956398;28;20232;-82
2021/12/18 02:45:53;;;;;;;28.93;17.73;;;;;;;4.90;77.16;97495.88;4956363;29;20236;-82
2021/12/18 02:48:20;;;;;;;24.73;17.37;;;;;;;4.88;77.17;97496.88;4956749;28;20580;-82
2021/12/18 02:50:46;;;;;;;28.13;18.40;;;;;;;4.79;77.42;97493.19;4955214;28;20236;-81
2021/12/18 02:53:14;;;;;;;26.30;17.80;;;;;;;4.84;77.39;97489.41;4956737;29;20208;-82
2021/12/18 02:55:41;;;;;;;26.67;18.10;;;;;;;4.96;77.34;97489.59;4955606;29;20193;-82
2021/12/18 02:58:07;;;;;;;25.13;18.60;;;;;;;5.00;76.59;97484.19;4955994;29;20781;-82
2021/12/18 03:00:33;;;;;;;24.73;17.67;;;;;;;5.07;76.31;97485.44;4955660;28;20276;-81
2021/12/18 03:03:05;;;;;;;25.87;17.57;;;;;;;5.13;76.21;97486.81;4956169;28;20208;-82
2021/12/18 03:05:38;;;;;;;24.30;17.33;;;;;;;5.10;76.27;97484.44;4955265;29;20201;-82
2021/12/18 03:08:12;;;;;;;24.50;17.10;;;;;;;5.00;76.37;97470.63;4955231;28;20201;-82
2021/12/18 03:20:01;;;;;;;24.47;16.90;;;;;;;4.91;77.73;97472.00;4955778;29;20840;-82
2021/12/18 03:24:59;;;;;;;26.67;17.77;;;;;;;5.08;76.62;97465.84;4954853;28;20211;-82
2021/12/18 03:27:27;;;;;;;25.93;17.73;;;;;;;5.11;76.48;97463.09;4955014;29;20228;-82
2021/12/18 03:29:55;;;;;;;26.57;18.23;;;;;;;5.14;76.64;97463.72;4955227;28;20244;-82
2021/12/18 03:32:22;;;;;;;26.20;18.77;;;;;;;5.14;76.41;97471.38;4954348;28;20240;-82
2021/12/18 03:34:49;;;;;;;27.03;18.53;;;;;;;5.16;76.42;97468.75;4954441;28;20204;-82
2021/12/18 03:37:16;;;;;;;24.60;17.33;;;;;;;5.13;76.58;97468.94;4935611;29;20284;-82
2021/12/18 03:39:42;;;;;;;28.27;19.00;;;;;;;5.07;76.64;97466.75;4935717;29;20628;-82
2021/12/18 03:42:09;;;;;;;25.53;17.70;;;;;;;5.06;76.38;97465.94;4953521;28;20235;-82
2021/12/18 03:44:38;;;;;;;25.90;18.10;;;;;;;5.11;76.68;97471.56;4954168;28;20810;-82
2021/12/18 03:47:05;;;;;;;24.37;17.23;;;;;;;5.14;76.09;97460.34;4954435;28;20204;-82
2021/12/18 03:49:31;;;;;;;25.83;17.77;;;;;;;5.16;76.20;97463.63;4954035;28;20201;-82
2021/12/18 03:51:58;;;;;;;26.33;17.13;;;;;;;5.05;76.33;97466.03;4953269;28;20778;-82
2021/12/18 03:54:25;;;;;;;27.83;18.97;;;;;;;5.00;77.09;97468.88;4953548;28;20197;-82
2021/12/18 03:56:51;;;;;;;28.70;18.53;;;;;;;5.05;76.71;97466.84;4954705;29;20229;-82
2021/12/18 03:59:18;;;;;;;26.03;16.70;;;;;;;4.94;77.14;97464.16;4954052;29;20587;-82
2021/12/18 04:01:45;;;;;;;28.53;18.07;;;;;;;4.86;77.63;97458.69;4955195;28;20296;-82
2021/12/18 04:04:12;;;;;;;26.33;17.57;;;;;;;4.92;77.04;97460.88;4954662;29;20260;-82
2021/12/18 04:06:39;;;;;;;26.17;17.90;;;;;;;4.78;77.43;97466.84;4954219;28;20711;-82
2021/12/18 04:09:06;;;;;;;30.60;18.17;;;;;;;4.63;78.62;97461.84;4953792;29;20684;-82
2021/12/18 04:11:33;;;;;;;28.10;16.80;;;;;;;4.70;78.65;97469.03;4954800;28;20833;-81
2021/12/18 04:14:01;;;;;;;25.47;16.47;;;;;;;4.66;78.40;97466.75;4954625;29;20201;-82
2021/12/18 04:16:28;;;;;;;28.57;16.70;;;;;;;4.61;78.72;97461.13;4954390;29;20711;-82
2021/12/18 04:18:56;;;;;;;24.50;16.37;;;;;;;4.69;78.38;97469.13;4953597;28;20205;-81
2021/12/18 04:21:22;;;;;;;26.97;16.83;;;;;;;4.57;78.69;97467.31;4953328;28;20284;-82
2021/12/18 04:23:49;;;;;;;25.33;16.57;;;;;;;4.45;79.41;97476.50;4953798;28;20201;-82
2021/12/18 04:26:16;;;;;;;25.17;15.93;;;;;;;4.52;78.81;97475.25;4954082;28;20211;-82
2021/12/18 04:28:42;;;;;;;26.30;17.20;;;;;;;4.46;79.68;97478.16;4953788;29;20204;-82
2021/12/18 04:31:08;;;;;;;25.23;17.03;;;;;;;4.60;79.68;97482.44;4953520;28;20672;-81
2021/12/18 04:33:35;;;;;;;25.80;16.93;;;;;;;4.72;78.77;97484.25;4953399;29;20692;-82
2021/12/18 04:36:03;;;;;;;23.40;15.60;;;;;;;4.82;78.32;97485.31;4953649;29;20197;-81
2021/12/18 04:38:29;;;;;;;23.67;15.93;;;;;;;4.85;77.98;97482.56;4954092;29;20260;-82
2021/12/18 04:40:56;;;;;;;24.23;15.87;;;;;;;4.88;77.69;97484.13;4953126;28;20240;-82
2021/12/18 04:43:22;;;;;;;23.43;14.67;;;;;;;4.92;77.44;97475.38;4953789;29;20208;-81
2021/12/18 04:45:49;;;;;;;25.33;16.47;;;;;;;4.97;77.32;97484.38;4953561;28;20624;-82
2021/12/18 04:48:15;;;;;;;23.47;16.20;;;;;;;4.83;77.78;97482.66;4953609;28;20248;-81
2021/12/18 04:50:42;;;;;;;24.30;15.03;;;;;;;4.91;77.85;97491.59;4953337;28;20236;-81
2021/12/18 04:53:10;;;;;;;24.13;15.10;;;;;;;4.97;77.20;97486.94;4962303;28;20209;-82
2021/12/18 04:55:37;;;;;;;24.33;15.17;;;;;;;4.93;76.95;97492.31;4963011;28;20197;-82
2021/12/18 04:58:04;;;;;;;20.83;13.63;;;;;;;4.80;77.38;97487.16;4956653;29;20707;-82
2021/12/18 05:00:38;;;;;;;22.00;14.17;;;;;;;4.56;78.41;97486.91;4955907;28;20217;-81
2021/12/18 05:03:06;;;;;;;24.50;14.00;;;;;;;4.10;80.19;97481.16;4956118;28;20205;-81
2021/12/18 05:05:34;;;;;;;22.47;14.10;;;;;;;4.02;81.38;97488.44;4955568;28;20208;-81
2021/12/18 05:08:00;;;;;;;21.80;14.10;;;;;;;4.22;80.60;97505.13;4958426;28;20209;-82
2021/12/18 05:10:28;;;;;;;21.67;14.43;;;;;;;4.38;79.77;97495.66;4958886;28;20283;-81
2021/12/18 05:12:55;;;;;;;19.30;13.07;;;;;;;4.55;79.04;97504.84;4959193;28;20204;-81
2021/12/18 05:15:21;;;;;;;22.17;13.93;;;;;;;4.63;78.39;97506.03;4958483;28;20205;-81
2021/12/18 05:17:48;;;;;;;20.03;13.67;;;;;;;4.49;79.08;97500.94;4958752;28;20790;-81
2021/12/18 05:20:14;;;;;;;24.00;13.80;;;;;;;4.54;78.92;97493.00;4958171;29;20224;-81
2021/12/18 05:22:41;;;;;;;21.63;13.80;;;;;;;4.64;78.47;97494.91;4957628;28;20229;-81
2021/12/18 05:25:08;;;;;;;21.50;13.20;;;;;;;4.47;78.88;97495.91;4957746;29;20204;-82
2021/12/18 05:27:36;;;;;;;19.17;13.27;;;;;;;4.47;79.17;97497.66;4957813;29;20205;-84
2021/12/18 05:30:04;;;;;;;19.73;13.50;;;;;;;4.49;78.46;97506.03;4956665;28;20244;-84
2021/12/18 05:32:30;;;;;;;21.17;12.90;;;;;;;4.18;80.31;97501.13;4956073;28;20236;-84
2021/12/18 05:34:57;;;;;;;24.17;14.10;;;;;;;3.96;81.30;97501.53;4955759;28;20624;-83
2021/12/18 05:37:44;;;;;;;26.10;13.73;;;;;;;3.69;82.49;97498.84;4956086;29;20221;-84
2021/12/18 05:40:12;;;;;;;19.60;13.07;;;;;;;3.54;84.24;97507.34;4956612;28;20640;-81
2021/12/18 05:42:50;;;;;;;21.43;13.20;;;;;;;3.42;85.72;97499.50;4957334;28;20727;-81
2021/12/18 05:45:17;;;;;;;16.50;11.10;;;;;;;3.43;84.27;97498.59;4940599;29;20263;-81
2021/12/18 05:47:44;;;;;;;18.00;11.37;;;;;;;3.41;84.17;97495.31;4956720;29;20212;-81
2021/12/18 05:50:12;;;;;;;17.73;10.87;;;;;;;3.46;83.76;97489.97;4957435;28;20228;-81
2021/12/18 05:52:39;;;;;;;18.20;11.10;;;;;;;3.57;82.95;97492.72;4950324;28;20232;-80
2021/12/18 05:55:07;;;;;;;18.43;11.27;;;;;;;3.71;81.89;97502.13;4953199;28;20212;-81
2021/12/18 05:57:33;;;;;;;15.23;10.30;;;;;;;3.85;81.07;97507.25;4956093;29;20232;-81
2021/12/18 06:00:01;;;;;;;15.73;11.00;;;;;;;3.95;80.53;97495.63;4951831;28;20228;-80
2021/12/18 06:02:28;;;;;;;16.60;11.33;;;;;;;3.98;80.35;97495.44;4954859;28;20273;-81
2021/12/18 06:04:54;;;;;;;16.87;11.07;;;;;;;3.78;81.72;97500.88;4954962;28;20209;-81
2021/12/18 06:07:29;;;;;;;15.93;10.93;;;;;;;3.87;81.16;97497.78;4955827;28;20672;-81
2021/12/18 06:09:57;;;;;;;14.53;10.23;;;;;;;3.93;80.55;97507.63;4956386;28;20224;-81
2021/12/18 06:12:23;;;;;;;14.40;10.37;;;;;;;3.68;82.82;97505.66;4955543;28;20894;-81
2021/12/18 06:14:50;;;;;;;17.70;11.30;;;;;;;3.61;82.92;97504.38;4955825;28;20208;-81
2021/12/18 06:17:17;;;;;;;15.80;10.03;;;;;;;3.79;82.25;97516.06;4956129;28;20232;-81
2021/12/18 06:19:44;;;;;;;13.87;9.50;;;;;;;4.00;81.17;97519.13;4955855;29;20212;-81
2021/12/18 06:22:11;;;;;;;13.37;9.87;;;;;;;4.16;80.29;97521.59;4955143;28;20244;-80
2021/12/18 06:24:37;;;;;;;13.67;9.83;;;;;;;4.25;79.60;97535.53;4956835;29;20205;-80
2021/12/18 06:27:04;;;;;;;14.13;9.80;;;;;;;4.33;78.81;97523.16;4957752;28;20481;-81
2021/12/18 06:29:33;;;;;;;14.20;9.23;;;;;;;4.31;78.31;97518.16;4956969;29;20205;-81
2021/12/18 06:32:00;;;;;;;13.50;9.57;;;;;;;4.12;79.01;97517.59;4956873;28;20236;-81
2021/12/18 06:34:28;;;;;;;14.37;10.40;;;;;;;3.94;79.85;97527.13;4955979;29;20692;-81
2021/12/18 06:36:54;;;;;;;12.40;9.27;;;;;;;4.07;79.89;97515.28;4956935;29;20208;-81
2021/12/18 06:39:21;;;;;;;14.30;9.53;;;;;;;4.07;80.00;97510.19;4956518;29;20221;-81
2021/12/18 06:41:48;;;;;;;14.23;10.50;;;;;;;3.89;80.00;97508.72;4956486;28;20241;-81
2021/12/18 06:44:15;;;;;;;14.70;9.83;;;;;;;3.87;81.03;97507.97;4956723;28;20201;-81
2021/12/18 06:46:41;;;;;;;12.47;9.27;;;;;;;3.87;80.75;97507.97;4956708;29;20197;-81
2021/12/18 06:49:10;;;;;;;12.80;8.77;;;;;;;3.69;80.82;97509.03;4956636;29;20212;-81
2021/12/18 06:51:37;;;;;;;13.20;9.77;;;;;;;3.70;81.12;97505.56;4956361;28;20238;-81
2021/12/18 06:54:04;;;;;;;14.23;10.23;;;;;;;3.52;82.56;97504.88;4956443;28;20271;-81
2021/12/18 06:56:30;;;;;;;13.90;10.07;;;;;;;3.53;82.59;97505.69;4956553;29;20672;-81
2021/12/18 06:58:57;;;;;;;13.73;9.80;;;;;;;3.59;82.63;97505.38;4963190;28;20231;-81
2021/12/18 07:01:23;;;;;;;14.77;10.10;;;;;;;3.78;81.78;97496.59;4969592;28;20239;-81
2021/12/18 07:03:50;;;;;;;14.13;10.10;;;;;;;4.00;80.91;97498.72;4957831;28;20209;-81
2021/12/18 07:06:16;;;;;;;13.73;10.67;;;;;;;4.08;80.13;97495.72;4955713;28;20723;-81
2021/12/18 07:08:44;;;;;;;14.57;9.90;;;;;;;4.07;80.86;97501.72;4955739;29;20208;-81
2021/12/18 07:11:10;;;;;;;13.40;9.57;;;;;;;4.08;81.20;97494.00;4946603;28;20274;-81
2021/12/18 07:13:37;;;;;;;15.23;9.70;;;;;;;3.95;80.82;97503.28;4955799;28;20665;-81
2021/12/18 07:16:03;;;;;;;13.83;9.33;;;;;;;3.99;80.74;97501.38;4954843;28;20212;-81
2021/12/18 07:18:30;;;;;;;14.27;9.93;;;;;;;3.85;81.48;97497.03;4956750;29;20220;-81
2021/12/18 07:20:57;;;;;;;13.40;9.83;;;;;;;3.81;81.19;97496.44;4954902;28;20236;-81
2021/12/18 07:23:24;;;;;;;13.57;9.67;;;;;;;3.84;80.73;97492.06;4955819;28;20228;-81
2021/12/18 07:25:52;;;;;;;12.53;8.87;;;;;;;3.91;80.30;97494.16;4957113;28;20204;-81
2021/12/18 07:28:18;;;;;;;13.03;9.53;;;;;;;3.86;80.80;97495.31;4954642;28;20196;-81
2021/12/18 07:30:45;;;;;;;14.80;9.90;;;;;;;3.89;80.98;97506.16;4955137;28;20236;-81
2021/12/18 07:33:11;;;;;;;12.27;9.17;;;;;;;4.00;79.85;97493.63;4956290;28;20205;-81
2021/12/18 07:35:38;;;;;;;13.73;9.47;;;;;;;4.10;79.41;97499.00;4958061;29;20200;-81
2021/12/18 07:38:05;;;;;;;13.63;9.50;;;;;;;4.06;79.05;97500.09;4962004;28;20251;-81
2021/12/18 07:40:33;;;;;;;14.17;9.90;;;;;;;3.90;79.95;97501.88;4950994;28;20701;-81
2021/12/18 07:43:00;;;;;;;15.07;9.27;;;;;;;3.71;80.37;97497.84;4964481;28;20204;-81
2021/12/18 07:45:27;;;;;;;12.73;9.03;;;;;;;3.71;82.18;97490.19;4955762;28;20209;-82
2021/12/18 07:47:54;;;;;;;13.63;9.50;;;;;;;3.81;80.69;97488.78;4956413;29;20201;-81
2021/12/18 07:50:20;;;;;;;13.30;8.83;;;;;;;3.79;80.50;97497.41;4955551;28;20686;-81
2021/12/18 07:52:48;;;;;;;13.07;9.37;;;;;;;3.91;80.24;97504.34;4963202;28;20193;-81
2021/12/18 07:55:16;;;;;;;12.30;8.73;;;;;;;3.99;79.57;97503.91;4955438;28;20207;-81
2021/12/18 07:57:43;;;;;;;13.50;8.83;;;;;;;3.64;80.64;97498.28;4955992;29;20631;-81
2021/12/18 08:00:14;;;;;;;12.67;8.27;;;;;;;3.72;80.94;97506.31;4965741;28;20224;-81
2021/12/18 08:02:41;;;;;;;11.63;8.57;;;;;;;3.86;80.72;97508.06;4947486;28;20235;-81
2021/12/18 08:05:08;;;;;;;12.23;8.77;;;;;;;4.03;80.18;97507.94;4954652;29;20220;-81
2021/12/18 08:07:35;;;;;;;11.70;8.50;;;;;;;4.04;79.57;97507.03;4958132;28;20204;-83
2021/12/18 08:10:02;;;;;;;11.77;8.77;;;;;;;4.12;79.40;97509.94;4971827;28;20212;-81
2021/12/18 08:12:29;;;;;;;12.40;9.33;;;;;;;4.02;79.50;97502.03;4960398;28;20661;-81
2021/12/18 08:14:57;;;;;;;12.50;9.17;;;;;;;4.09;79.57;97508.38;4956159;28;20255;-82
2021/12/18 08:17:25;;;;;;;14.10;8.87;;;;;;;4.03;78.81;97513.03;4956128;28;20212;-84
2021/12/18 08:19:52;;;;;;;14.03;8.60;;;;;;;4.16;78.55;97508.84;4954848;29;20261;-84
2021/12/18 08:22:19;;;;;;;11.57;8.47;;;;;;;4.00;78.48;97508.94;4954049;28;20232;-83
2021/12/18 08:24:45;;;;;;;13.93;9.37;;;;;;;3.88;79.84;97508.78;4953676;29;20525;-84
2021/12/18 08:27:12;;;;;;;12.40;9.50;;;;;;;3.88;79.36;97501.16;4955637;28;20197;-84
2021/12/18 08:29:39;;;;;;;12.27;9.13;;;;;;;4.00;79.30;97508.09;4955494;28;20193;-84
2021/12/18 08:32:06;;;;;;;14.13;9.03;;;;;;;3.98;79.00;97513.28;4954398;28;20629;-84
2021/12/18 08:34:34;;;;;;;13.37;9.07;;;;;;;3.86;80.52;97511.44;4954432;29;20201;-84
2021/12/18 08:37:01;;;;;;;12.77;9.17;;;;;;;3.85;80.54;97514.09;4954603;28;20204;-83
2021/12/18 08:39:27;;;;;;;12.20;8.80;;;;;;;3.91;80.04;97504.34;4955000;28;20228;-84
2021/12/18 08:41:54;;;;;;;14.07;9.83;;;;;;;3.87;79.83;97502.88;4953386;28;20709;-84
2021/12/18 08:44:20;;;;;;;13.30;9.53;;;;;;;3.88;80.96;97504.53;4955280;28;20280;-83
2021/12/18 08:46:47;;;;;;;13.57;9.00;;;;;;;3.99;80.69;97501.38;4958900;28;20283;-84
2021/12/18 08:49:14;;;;;;;12.77;9.23;;;;;;;4.16;80.12;97508.84;4957760;28;20201;-83
2021/12/18 08:51:42;;;;;;;12.70;9.27;;;;;;;4.30;78.90;97506.31;4969215;28;20243;-84
2021/12/18 08:54:10;;;;;;;29.07;20.43;;;;;;;4.40;78.96;97509.16;4962376;28;20231;-83
2021/12/18 08:56:36;;;;;;;16.83;12.73;;;;;;;4.37;77.87;97504.22;4957170;29;20208;-83
2021/12/18 08:59:03;;;;;;;13.60;9.47;;;;;;;4.31;77.90;97507.94;4958335;29;20220;-83
2021/12/18 09:01:30;;;;;;;13.53;9.60;;;;;;;4.23;77.22;97510.16;4957546;28;20900;-83
2021/12/18 09:03:57;;;;;;;11.70;8.83;;;;;;;4.23;78.08;97505.03;4957920;28;20208;-83
2021/12/18 09:06:24;;;;;;;12.47;9.23;;;;;;;4.34;78.06;97510.31;4957079;29;20687;-83
2021/12/18 09:08:53;;;;;;;12.60;9.70;;;;;;;4.35;77.12;97511.16;4956950;28;20209;-82
2021/12/18 09:11:20;;;;;;;13.03;10.27;;;;;;;4.29;77.34;97516.59;4948761;28;20724;-84
2021/12/18 09:13:47;;;;;;;14.93;10.50;;;;;;;4.15;78.00;97515.69;4957388;29;20212;-83
2021/12/18 09:16:13;;;;;;;14.13;9.93;;;;;;;4.22;77.74;97511.06;4957608;28;20197;-84
2021/12/18 09:18:39;;;;;;;14.10;10.13;;;;;;;4.28;77.31;97508.13;4957993;29;20233;-83
2021/12/18 09:21:06;;;;;;;12.57;9.53;;;;;;;4.33;77.53;97507.88;4956533;28;20241;-83
2021/12/18 09:23:32;;;;;;;12.47;9.47;;;;;;;4.32;77.26;97512.13;4956351;28;20197;-83
2021/12/18 09:26:00;;;;;;;13.57;9.30;;;;;;;4.31;77.93;97505.41;4958064;29;20846;-83
2021/12/18 09:28:27;;;;;;;12.73;10.00;;;;;;;4.24;77.79;97499.00;4957103;28;20681;-83
2021/12/18 09:30:54;;;;;;;13.77;9.47;;;;;;;4.33;78.08;97505.31;4956835;28;20232;-83
2021/12/18 09:33:20;;;;;;;13.20;10.00;;;;;;;4.18;78.43;97503.66;4956989;28;20233;-83
2021/12/18 09:35:47;;;;;;;16.27;11.83;;;;;;;4.25;77.81;97500.66;4957295;29;20256;-83
2021/12/18 09:38:14;;;;;;;29.17;19.63;;;;;;;4.33;77.66;97503.59;4954964;29;20620;-83
2021/12/18 09:40:40;;;;;;;16.27;11.43;;;;;;;4.35;77.20;97493.28;4956767;29;20224;-82
2021/12/18 09:43:08;;;;;;;15.23;10.67;;;;;;;4.41;77.01;97492.94;4956082;28;20708;-83
2021/12/18 09:45:35;;;;;;;14.63;10.50;;;;;;;4.49;76.60;97496.66;4956027;29;20208;-83
2021/12/18 09:48:09;;;;;;;17.63;11.03;;;;;;;4.51;76.54;97487.19;4956716;29;20838;-83
2021/12/18 09:50:37;;;;;;;15.93;10.40;;;;;;;4.49;76.90;97488.19;4959034;28;20704;-83
2021/12/18 09:53:06;;;;;;;14.10;10.73;;;;;;;4.45;76.77;97485.00;4955970;28;20236;-83
2021/12/18 09:55:32;;;;;;;16.10;11.63;;;;;;;4.47;77.35;97485.72;4957261;29;20508;-83
2021/12/18 09:57:59;;;;;;;16.40;11.57;;;;;;;4.48;77.43;97484.81;4958837;29;20200;-82
2021/12/18 10:00:27;;;;;;;15.63;10.67;;;;;;;4.48;77.37;97476.34;4958992;28;20303;-81
2021/12/18 10:02:54;;;;;;;15.33;9.77;;;;;;;4.48;77.34;97484.81;4958274;28;20228;-80
2021/12/18 10:05:27;;;;;;;13.77;10.67;;;;;;;4.60;77.53;97479.91;4957247;29;20197;-81
2021/12/18 10:08:16;;;;;;;16.13;10.03;;;;;;;4.65;76.68;97473.59;4961638;28;20444;-81
2021/12/18 10:11:04;;;;;;;15.53;11.00;;;;;;;4.68;76.60;97470.84;4966991;28;20216;-80
2021/12/18 10:13:31;;;;;;;12.97;10.43;;;;;;;4.76;76.56;97461.00;4964231;28;20364;-82
2021/12/18 10:16:10;;;;;;;17.07;11.50;;;;;;;4.83;75.83;97459.69;4957648;29;20205;-81
2021/12/18 10:18:37;;;;;;;14.27;10.77;;;;;;;4.70;75.96;97461.38;4964170;29;20260;-81
2021/12/18 10:21:12;;;;;;;16.00;10.90;;;;;;;4.52;76.07;97454.84;4961187;29;20248;-81
2021/12/18 10:23:40;;;;;;;15.80;11.17;;;;;;;4.51;76.40;97448.91;4958898;28;20266;-81
2021/12/18 10:26:07;;;;;;;14.43;10.60;;;;;;;4.53;76.38;97451.38;4958500;28;20205;-81
2021/12/18 10:28:44;;;;;;;14.43;11.37;;;;;;;4.62;76.29;97443.16;4958924;28;20203;-81
2021/12/18 10:31:12;;;;;;;15.57;11.03;;;;;;;4.58;76.27;97458.75;4940646;29;20217;-81
2021/12/18 10:33:39;;;;;;;15.97;11.20;;;;;;;4.61;76.58;97450.94;4945895;28;20264;-81
2021/12/18 10:36:05;;;;;;;16.83;11.50;;;;;;;4.64;76.64;97453.25;4959264;28;20209;-82
2021/12/18 10:38:38;;;;;;;15.77;11.23;;;;;;;4.76;76.17;97455.91;4957108;28;20232;-82
2021/12/18 10:41:20;;;;;;;15.63;10.27;;;;;;;4.86;75.95;97449.31;4959473;28;20220;-82
2021/12/18 10:43:58;;;;;;;16.10;10.97;;;;;;;4.81;75.48;97443.66;4956522;28;20213;-82
2021/12/18 10:46:27;;;;;;;14.33;10.37;;;;;;;4.82;75.68;97452.94;4949028;29;20211;-82
2021/12/18 10:48:58;;;;;;;15.40;10.07;;;;;;;4.93;75.48;97452.31;4956985;28;20201;-81
2021/12/18 10:51:27;;;;;;;15.17;10.90;;;;;;;5.01;75.39;97447.53;4967140;28;20223;-82
2021/12/18 10:54:00;;;;;;;14.43;10.70;;;;;;;5.08;75.12;97459.00;4964547;28;20688;-81
2021/12/18 10:56:37;;;;;;;18.47;10.60;;;;;;;5.15;74.63;97460.25;4956746;28;20204;-82
2021/12/18 10:59:06;;;;;;;14.03;10.57;;;;;;;5.03;73.64;97449.97;4956399;29;20205;-82
2021/12/18 11:01:37;;;;;;;13.60;10.30;;;;;;;5.04;74.09;97449.06;4956953;28;20216;-82
2021/12/18 11:04:04;;;;;;;14.90;11.10;;;;;;;4.89;73.52;97445.75;4954962;28;20193;-82
2021/12/18 11:06:32;;;;;;;15.57;10.50;;;;;;;4.91;74.58;97435.44;4954662;29;20559;-82
2021/12/18 11:09:06;;;;;;;16.30;11.47;;;;;;;4.75;75.03;97426.19;4954924;28;20228;-82
2021/12/18 11:14:25;;;;;;;14.13;11.13;;;;;;;4.73;74.64;97419.53;4954259;29;20252;-82
2021/12/18 11:16:59;;;;;;;14.57;10.47;;;;;;;4.78;74.59;97413.25;4956158;29;20209;-82
2021/12/18 11:19:27;;;;;;;15.23;11.03;;;;;;;4.88;74.42;97415.22;4955730;29;20256;-81
2021/12/18 11:21:57;;;;;;;14.33;10.73;;;;;;;4.97;74.26;97415.47;4955853;28;20241;-82
2021/12/18 11:24:34;;;;;;;17.13;11.50;;;;;;;4.82;74.12;97406.19;4954763;29;20731;-82
2021/12/18 11:27:04;;;;;;;13.13;10.20;;;;;;;4.70;73.79;97402.69;4956372;29;20200;-82
2021/12/18 11:29:35;;;;;;;14.53;10.50;;;;;;;4.73;74.74;97392.28;4955794;29;20700;-82
2021/12/18 11:32:03;;;;;;;13.37;10.47;;;;;;;4.87;74.47;97391.41;4955566;28;20300;-82
2021/12/18 11:34:30;;;;;;;14.57;10.43;;;;;;;5.00;74.58;97389.75;4956155;29;20223;-82
2021/12/18 11:36:59;;;;;;;15.63;11.13;;;;;;;5.00;73.75;97379.53;4954204;28;20201;-82
2021/12/18 11:39:30;;;;;;;13.17;10.23;;;;;;;5.06;74.26;97375.75;4954289;28;20220;-82
2021/12/18 11:41:57;;;;;;;17.47;10.07;;;;;;;5.36;97.95;97389.13;4955495;28;20272;-82
2021/12/18 11:44:26;;;;;;;37.93;25.60;;;;;;;5.93;100.00;97380.28;4960942;28;20672;-83
2021/12/18 11:46:53;;;;;;;30.37;21.57;;;;;;;6.24;77.82;97372.13;4954294;29;20220;-82
2021/12/18 11:49:25;;;;;;;19.00;12.83;;;;;;;6.26;73.92;97370.28;4954416;28;20315;-82
2021/12/18 11:52:00;;;;;;;13.80;10.30;;;;;;;5.99;72.60;97369.63;4957845;28;20247;-82
2021/12/18 11:54:43;;;;;;;16.00;11.53;;;;;;;5.82;71.84;97368.16;4952978;28;20634;-81
2021/12/18 11:57:09;;;;;;;20.10;11.13;;;;;;;5.80;73.29;97359.78;4955292;28;20205;-82
2021/12/18 11:59:39;;;;;;;14.87;11.33;;;;;;;5.73;72.94;97364.50;4953779;29;20678;-82
2021/12/18 12:02:06;;;;;;;13.80;11.00;;;;;;;5.72;73.04;97367.97;4953391;28;20232;-83
2021/12/18 12:05:05;;;;;;;13.17;10.67;;;;;;;5.67;72.50;97356.44;4958309;28;20204;-82
2021/12/18 12:07:32;;;;;;;15.50;11.10;;;;;;;5.54;72.65;97361.53;4954209;28;20299;-82
2021/12/18 12:10:20;;;;;;;14.93;10.80;;;;;;;5.51;72.22;97346.41;4955727;28;20295;-82